Time;durP1;ratioP1;P1;durP2;ratioP2;P2;SDS_P1;SDS_P2;PMS_P1;PMS_P2;Temp;Humidity;BMP_temperature;BMP_pressure;BME280_temperature;BME280_humidity;BME280_pressure;Samples;Min_cycle;Max_cycle;Signal;HPM_P1;HPM_P2
2021/09/15 00:01:57;;;;;;;12.47;9.58;;;;;;;24.36;53.53;101642.27;1770909;80;21021;-47
2021/09/15 00:04:25;;;;;;;10.55;9.35;;;;;;;24.33;53.38;101650.43;1770979;80;21025;-46
2021/09/15 00:06:52;;;;;;;11.40;10.03;;;;;;;24.45;53.18;101645.64;1773761;80;21038;-50
2021/09/15 00:09:20;;;;;;;10.43;9.43;;;;;;;24.52;53.30;101650.48;1774076;80;21064;-47
2021/09/15 00:11:47;;;;;;;11.88;10.53;;;;;;;24.50;53.29;101651.06;1774724;80;21391;-47
2021/09/15 00:14:13;;;;;;;11.63;10.38;;;;;;;24.49;53.24;101649.33;1774767;80;20974;-47
2021/09/15 00:16:40;;;;;;;12.13;10.03;;;;;;;24.25;54.04;101651.77;1774828;80;20995;-47
2021/09/15 00:19:08;;;;;;;13.28;10.15;;;;;;;24.21;54.35;101652.09;1771450;80;21497;-50
2021/09/15 00:21:35;;;;;;;11.40;10.03;;;;;;;24.36;53.85;101652.41;1771673;80;21038;-52
2021/09/15 00:24:03;;;;;;;13.65;10.55;;;;;;;24.37;53.72;101647.95;1781341;80;21026;-50
2021/09/15 00:26:30;;;;;;;10.93;9.83;;;;;;;24.33;53.59;101643.78;1772593;80;20998;-49
2021/09/15 00:28:57;;;;;;;12.05;10.60;;;;;;;24.30;53.58;101645.33;1772245;80;21001;-52
2021/09/15 00:31:24;;;;;;;13.45;9.78;;;;;;;24.27;53.68;101645.51;1771304;80;21458;-47
2021/09/15 00:33:50;;;;;;;11.80;10.60;;;;;;;24.23;53.72;101644.36;1772074;80;21009;-51
2021/09/15 00:36:19;;;;;;;11.57;10.48;;;;;;;24.20;54.02;101648.56;1765807;80;21510;-47
2021/09/15 00:38:47;;;;;;;11.55;10.35;;;;;;;24.19;53.83;101649.50;1776812;80;21033;-50
2021/09/15 00:41:14;;;;;;;13.00;10.28;;;;;;;24.18;53.77;101649.14;1749328;80;21022;-49
2021/09/15 00:44:01;;;;;;;12.73;10.90;;;;;;;24.15;53.97;101641.84;1767093;80;21010;-49
2021/09/15 00:46:29;;;;;;;12.28;11.03;;;;;;;24.13;54.17;101643.25;1775519;80;20989;-51
2021/09/15 00:48:56;;;;;;;11.85;10.58;;;;;;;24.09;54.13;101640.41;1766671;80;21514;-49
2021/09/15 00:51:23;;;;;;;13.10;10.98;;;;;;;24.05;54.18;101640.23;1766622;80;21049;-46
2021/09/15 00:53:51;;;;;;;14.33;11.18;;;;;;;24.03;54.32;101637.25;1765981;80;20962;-48
2021/09/15 00:56:18;;;;;;;13.03;11.75;;;;;;;24.00;54.53;101639.66;1766877;80;21002;-49
2021/09/15 00:58:45;;;;;;;12.47;11.22;;;;;;;23.96;54.53;101639.47;1768546;80;21572;-49
2021/09/15 01:01:12;;;;;;;14.73;11.35;;;;;;;23.93;54.79;101638.78;1769309;80;21009;-51
2021/09/15 01:03:41;;;;;;;13.15;11.73;;;;;;;23.91;55.01;101642.88;1769551;80;20970;-49
2021/09/15 01:06:08;;;;;;;13.70;12.30;;;;;;;23.91;55.29;101640.22;1769161;80;21537;-49
2021/09/15 01:08:37;;;;;;;14.28;11.55;;;;;;;23.89;55.65;101638.60;1753437;80;21006;-48
2021/09/15 01:11:07;;;;;;;12.18;10.80;;;;;;;23.88;55.89;101644.42;1772258;80;20962;-48
2021/09/15 01:13:38;;;;;;;14.45;10.28;;;;;;;23.87;55.63;101644.02;1762991;80;21013;-47
2021/09/15 01:16:17;;;;;;;10.23;9.33;;;;;;;23.88;55.20;101648.41;1746245;81;21065;-46
2021/09/15 01:18:48;;;;;;;8.93;7.97;;;;;;;23.88;54.09;101649.73;1721058;83;21006;-51
2021/09/15 01:21:33;;;;;;;9.05;8.15;;;;;;;23.88;53.10;101649.73;1759621;81;21784;-49
2021/09/15 01:24:03;;;;;;;11.55;8.45;;;;;;;23.90;52.07;101645.17;1691965;85;21069;-51
2021/09/15 01:26:36;;;;;;;11.70;8.18;;;;;;;23.92;51.91;101640.62;1712880;83;21074;-47
2021/09/15 01:29:31;;;;;;;10.63;7.90;;;;;;;23.97;51.70;101647.80;1710518;83;21035;-46
2021/09/15 01:32:03;;;;;;;8.93;7.78;;;;;;;24.03;51.24;101651.44;1709452;83;21039;-47
2021/09/15 01:34:43;;;;;;;8.90;7.85;;;;;;;24.04;51.00;101649.17;1676311;84;21566;-46
2021/09/15 01:37:13;;;;;;;8.83;7.97;;;;;;;24.04;50.76;101653.63;1674238;84;21659;-47
2021/09/15 01:39:42;;;;;;;9.48;7.42;;;;;;;24.04;50.47;101646.98;1650491;86;21058;-47
2021/09/15 01:42:09;;;;;;;7.80;7.10;;;;;;;24.06;50.22;101648.59;1683316;84;21041;-51
2021/09/15 01:44:41;;;;;;;9.60;8.28;;;;;;;24.07;50.20;101645.47;1668003;84;21045;-46
2021/09/15 01:47:10;;;;;;;8.55;7.47;;;;;;;24.11;49.99;101647.81;1595487;89;21089;-46
2021/09/15 01:49:38;;;;;;;10.13;8.08;;;;;;;24.10;49.51;101650.11;1593890;89;21113;-46
2021/09/15 01:52:06;;;;;;;11.22;8.20;;;;;;;23.95;49.69;101653.70;1587451;89;21061;-49
2021/09/15 01:54:35;;;;;;;9.08;8.18;;;;;;;23.87;49.68;101645.82;1578984;90;21172;-49
2021/09/15 01:57:03;;;;;;;12.07;7.85;;;;;;;23.85;49.67;101644.59;1578425;90;21097;-46
2021/09/15 01:59:43;;;;;;;11.65;8.35;;;;;;;23.84;49.45;101644.23;1576282;90;21034;-50
2021/09/15 02:02:16;;;;;;;9.18;7.58;;;;;;;23.82;49.46;101640.78;1572727;90;21058;-49
2021/09/15 02:04:45;;;;;;;10.45;8.33;;;;;;;23.79;49.39;101641.00;1619514;87;21103;-46
2021/09/15 02:07:19;;;;;;;9.35;8.05;;;;;;;23.76;49.41;101645.16;1626217;87;21585;-48
2021/09/15 02:09:49;;;;;;;8.63;7.80;;;;;;;23.74;49.63;101649.72;1631191;86;21626;-49
2021/09/15 02:12:18;;;;;;;8.70;7.35;;;;;;;23.71;49.94;101649.06;1632382;86;21539;-47
2021/09/15 02:14:45;;;;;;;10.72;7.90;;;;;;;23.70;49.84;101646.87;1632272;86;21074;-46
2021/09/15 02:17:14;;;;;;;8.53;7.65;;;;;;;23.71;49.78;101655.23;1632419;86;21673;-46
2021/09/15 02:19:41;;;;;;;8.70;7.70;;;;;;;23.70;49.63;101647.37;1610608;87;21107;-46
2021/09/15 02:22:14;;;;;;;10.00;8.23;;;;;;;23.67;49.76;101648.41;1629210;86;21111;-46
2021/09/15 02:24:43;;;;;;;8.88;8.03;;;;;;;23.63;49.87;101644.23;1628194;86;21087;-52
2021/09/15 02:27:21;;;;;;;9.75;8.48;;;;;;;23.60;49.97;101649.72;1591444;89;21156;-49
2021/09/15 02:29:48;;;;;;;9.10;8.08;;;;;;;23.57;49.91;101651.26;1591538;89;21036;-46
2021/09/15 02:32:19;;;;;;;10.78;8.18;;;;;;;23.57;50.01;101657.90;1618798;88;21087;-46
2021/09/15 02:34:56;;;;;;;9.10;8.20;;;;;;;23.55;50.29;101660.27;1617497;88;21064;-51
2021/09/15 02:37:31;;;;;;;9.70;8.70;;;;;;;23.53;50.49;101665.67;1612150;88;21109;-46
2021/09/15 02:40:07;;;;;;;14.33;8.28;;;;;;;23.52;50.57;101662.62;1542720;93;21098;-48
2021/09/15 02:42:41;;;;;;;9.50;8.33;;;;;;;23.52;50.43;101677.23;1539852;93;21549;-48
2021/09/15 02:45:12;;;;;;;12.60;8.53;;;;;;;23.54;50.12;101671.36;1606540;88;21583;-51
2021/09/15 02:47:53;;;;;;;10.73;8.67;;;;;;;23.55;50.17;101674.88;1575370;90;21103;-50
2021/09/15 02:50:22;;;;;;;12.15;8.50;;;;;;;23.56;50.02;101674.77;1602812;89;21200;-50
2021/09/15 02:53:09;;;;;;;8.20;7.50;;;;;;;23.58;49.92;101684.83;1575310;90;21055;-51
2021/09/15 02:55:41;;;;;;;9.03;8.13;;;;;;;23.56;50.14;101685.40;1572138;89;21107;-51
2021/09/15 02:58:25;;;;;;;9.83;8.13;;;;;;;23.53;50.57;101685.61;1584093;90;21111;-50
2021/09/15 03:00:53;;;;;;;8.50;7.62;;;;;;;23.51;50.75;101688.83;1602892;89;21105;-49
2021/09/15 03:03:24;;;;;;;11.73;8.53;;;;;;;23.50;50.91;101692.88;1480815;97;21158;-47
2021/09/15 03:05:53;;;;;;;8.85;7.42;;;;;;;23.47;50.99;101689.96;1504310;95;21087;-51
2021/09/15 03:08:23;;;;;;;7.15;6.45;;;;;;;23.47;50.89;101693.95;1507413;95;21100;-50
2021/09/15 03:10:50;;;;;;;10.40;7.78;;;;;;;23.47;51.03;101701.05;1480780;97;21609;-49
2021/09/15 03:13:18;;;;;;;10.30;7.90;;;;;;;23.48;50.98;101704.08;1480644;95;21158;-49
2021/09/15 03:15:46;;;;;;;12.45;8.15;;;;;;;23.50;50.95;101703.04;1509015;95;21140;-51
2021/09/15 03:18:14;;;;;;;12.15;7.60;;;;;;;23.52;50.75;101705.13;1552888;92;21049;-49
2021/09/15 03:20:43;;;;;;;10.70;7.60;;;;;;;23.56;51.07;101700.48;1592113;90;21042;-46
2021/09/15 03:23:09;;;;;;;9.25;8.35;;;;;;;23.57;50.90;101703.06;1631128;86;21469;-51
2021/09/15 03:25:37;;;;;;;9.30;7.72;;;;;;;23.57;50.52;101708.37;1668904;86;21013;-50
2021/09/15 03:28:04;;;;;;;9.45;7.85;;;;;;;23.58;50.21;101707.41;1669328;86;20988;-46
2021/09/15 03:30:31;;;;;;;10.32;7.80;;;;;;;23.58;49.91;101708.74;1669264;86;21092;-49
2021/09/15 03:32:58;;;;;;;11.30;7.37;;;;;;;23.58;49.87;101712.73;1669198;86;20989;-46
2021/09/15 03:35:26;;;;;;;13.70;8.13;;;;;;;23.57;49.55;101715.02;1669129;86;21505;-46
2021/09/15 03:37:53;;;;;;;10.53;7.80;;;;;;;23.56;49.53;101714.63;1658771;86;21167;-52
2021/09/15 03:40:21;;;;;;;9.95;8.30;;;;;;;23.53;49.22;101720.14;1688461;80;21041;-46
2021/09/15 03:42:50;;;;;;;11.15;8.05;;;;;;;23.51;49.20;101719.38;1773261;80;21506;-46
2021/09/15 03:45:17;;;;;;;10.93;7.67;;;;;;;23.49;49.18;101727.91;1770615;80;21002;-48
2021/09/15 03:47:45;;;;;;;8.13;7.33;;;;;;;23.48;49.22;101730.17;1769215;80;20986;-47
2021/09/15 03:50:14;;;;;;;10.85;8.20;;;;;;;23.46;49.66;101726.75;1766225;80;21017;-46
2021/09/15 03:52:43;;;;;;;12.20;7.87;;;;;;;23.47;50.25;101733.80;1766467;80;20965;-50
2021/09/15 03:55:11;;;;;;;11.68;7.90;;;;;;;23.45;50.04;101738.34;1768909;80;21502;-51
2021/09/15 03:57:38;;;;;;;11.85;8.65;;;;;;;23.44;49.94;101741.93;1769545;80;20961;-46
2021/09/15 04:00:07;;;;;;;14.18;7.83;;;;;;;23.42;50.18;101735.86;1779871;80;21025;-49
2021/09/15 04:02:35;;;;;;;11.83;7.87;;;;;;;23.41;50.42;101740.80;1765947;80;20962;-46
2021/09/15 04:05:03;;;;;;;9.15;8.20;;;;;;;23.41;50.42;101744.78;1766419;80;20974;-47
2021/09/15 04:07:32;;;;;;;7.90;7.03;;;;;;;23.40;50.37;101745.72;1766354;80;21029;-47
2021/09/15 04:09:59;;;;;;;12.78;8.15;;;;;;;23.39;50.09;101750.62;1767279;80;21021;-49
2021/09/15 04:12:26;;;;;;;12.15;7.97;;;;;;;23.38;50.31;101747.61;1770155;80;21485;-52
2021/09/15 04:14:53;;;;;;;9.30;7.50;;;;;;;23.37;50.58;101748.54;1780520;80;21014;-46
2021/09/15 04:17:20;;;;;;;13.45;8.33;;;;;;;23.36;50.97;101757.47;1766553;80;21029;-47
2021/09/15 04:19:47;;;;;;;8.15;7.12;;;;;;;;;;1762558;80;21553;-50
2021/09/15 04:22:20;;;;;;;9.70;7.60;;;;;;;23.37;50.80;101759.16;1769776;80;20949;-52
2021/09/15 04:33:01;;;;;;;9.70;8.60;;;;;;;23.36;50.00;101771.61;1769631;80;20985;-51
2021/09/15 04:35:28;;;;;;;12.05;7.90;;;;;;;;;;1769651;80;20997;-50
2021/09/15 04:37:55;;;;;;;15.23;8.20;;;;;;;23.34;49.49;101778.81;1772111;80;21510;-48
2021/09/15 04:40:22;;;;;;;13.70;7.92;;;;;;;23.33;49.56;101781.54;1774268;80;21018;-47
2021/09/15 04:42:49;;;;;;;12.23;7.60;;;;;;;23.28;49.66;101786.25;1772877;80;21494;-50
2021/09/15 04:45:16;;;;;;;10.60;8.93;;;;;;;23.26;49.69;101781.03;1775651;80;21501;-46
2021/09/15 04:47:45;;;;;;;11.15;8.43;;;;;;;23.33;49.51;101786.84;1777361;80;21026;-49
2021/09/15 04:50:12;;;;;;;12.28;8.40;;;;;;;23.30;49.53;101787.02;1769933;80;21065;-47
2021/09/15 04:52:39;;;;;;;10.78;9.08;;;;;;;23.32;49.71;101783.36;1771236;80;21521;-49
2021/09/15 04:55:08;;;;;;;11.73;9.28;;;;;;;23.37;49.52;101791.90;1767398;80;21009;-46
2021/09/15 04:57:36;;;;;;;12.80;8.90;;;;;;;23.42;49.42;101789.84;1787253;80;21050;-52
2021/09/15 05:00:04;;;;;;;12.03;9.05;;;;;;;23.50;48.98;101790.71;1771145;80;21025;-50
2021/09/15 05:02:33;;;;;;;11.08;8.68;;;;;;;23.56;49.04;101796.13;1771097;80;21005;-46
2021/09/15 05:05:02;;;;;;;12.65;9.63;;;;;;;23.60;48.96;101795.00;1772426;80;20985;-46
2021/09/15 05:07:32;;;;;;;12.07;9.68;;;;;;;23.62;49.05;101795.79;1763541;80;21013;-48
2021/09/15 05:09:59;;;;;;;11.12;9.28;;;;;;;23.63;49.03;101790.38;1774516;80;21056;-50
2021/09/15 05:12:27;;;;;;;12.25;9.68;;;;;;;23.63;48.94;101802.80;1774283;80;21524;-48
2021/09/15 05:14:56;;;;;;;11.95;9.03;;;;;;;23.63;49.01;101797.02;1774308;80;21048;-47
2021/09/15 05:17:23;;;;;;;11.73;9.35;;;;;;;23.65;48.92;101800.91;1750903;80;21509;-51
2021/09/15 05:19:51;;;;;;;22.10;9.20;;;;;;;23.66;48.92;101799.97;1771274;80;21056;-51
2021/09/15 05:22:18;;;;;;;13.80;9.88;;;;;;;23.69;49.04;101805.95;1771478;80;20994;-51
2021/09/15 05:24:47;;;;;;;13.60;9.35;;;;;;;23.72;49.21;101804.42;1781038;80;21076;-47
2021/09/15 05:27:14;;;;;;;12.10;9.88;;;;;;;23.77;49.18;101808.14;1781044;80;21006;-50
2021/09/15 05:29:41;;;;;;;14.85;9.88;;;;;;;23.81;49.12;101812.33;1771203;80;20966;-50
2021/09/15 05:32:11;;;;;;;10.78;9.33;;;;;;;23.84;49.00;101822.32;1771629;80;21474;-51
2021/09/15 05:34:39;;;;;;;11.12;9.55;;;;;;;23.88;49.11;101815.88;1777083;80;20997;-49
2021/09/15 05:37:07;;;;;;;9.68;8.68;;;;;;;23.91;48.98;101822.78;1769171;80;21018;-48
2021/09/15 05:39:33;;;;;;;12.65;9.10;;;;;;;23.92;49.18;101826.70;1752127;80;21660;-51
2021/09/15 05:42:00;;;;;;;13.75;10.25;;;;;;;23.96;49.32;101829.55;1785342;80;20958;-49
2021/09/15 05:44:28;;;;;;;15.65;8.83;;;;;;;23.99;49.31;101829.35;1779070;80;21001;-49
2021/09/15 05:46:55;;;;;;;18.10;9.23;;;;;;;24.03;49.18;101833.56;1771258;80;21001;-49
2021/09/15 05:49:23;;;;;;;16.62;10.10;;;;;;;24.07;49.14;101831.10;1770755;80;21021;-48
2021/09/15 05:51:50;;;;;;;16.48;9.55;;;;;;;24.13;49.10;101838.70;1780562;80;20977;-48
2021/09/15 05:54:16;;;;;;;12.75;9.73;;;;;;;24.20;49.14;101841.38;1785700;80;21025;-49
2021/09/15 05:56:43;;;;;;;13.58;9.25;;;;;;;24.28;48.89;101841.41;1785727;80;20958;-49
2021/09/15 05:59:10;;;;;;;11.22;9.25;;;;;;;24.34;48.94;101845.84;1781685;80;20979;-47
2021/09/15 06:01:37;;;;;;;12.37;9.55;;;;;;;24.41;48.94;101847.66;1773432;80;20981;-49
2021/09/15 06:04:05;;;;;;;13.93;9.20;;;;;;;24.49;48.84;101852.02;1776488;80;21576;-47
2021/09/15 06:06:38;;;;;;;12.73;9.85;;;;;;;24.54;48.78;101856.13;1781882;80;21267;-47
2021/09/15 06:09:08;;;;;;;12.50;9.63;;;;;;;24.57;48.72;101856.39;1778215;80;21022;-50
2021/09/15 06:11:35;;;;;;;11.15;9.93;;;;;;;24.60;48.59;101854.88;1777885;80;21017;-50
2021/09/15 06:14:03;;;;;;;12.20;8.80;;;;;;;24.65;48.58;101859.42;1775268;80;21497;-49
2021/09/15 06:16:29;;;;;;;13.93;9.83;;;;;;;24.68;48.46;101855.25;1781229;80;20966;-47
2021/09/15 06:18:58;;;;;;;9.78;8.78;;;;;;;24.74;48.43;101854.42;1785420;80;20982;-47
2021/09/15 06:21:44;;;;;;;9.85;8.75;;;;;;;24.81;48.32;101854.89;1779175;80;21009;-50
2021/09/15 06:24:18;;;;;;;10.60;8.53;;;;;;;24.88;48.30;101849.07;1785699;80;21470;-50
2021/09/15 06:26:47;;;;;;;12.75;8.38;;;;;;;24.96;48.66;101851.23;1781089;80;20988;-51
2021/09/15 06:29:14;;;;;;;12.73;8.35;;;;;;;25.01;48.86;101852.66;1786977;80;21525;-52
2021/09/15 06:31:42;;;;;;;11.65;7.85;;;;;;;25.09;48.94;101853.96;1776334;80;21028;-50
2021/09/15 06:34:08;;;;;;;13.55;8.45;;;;;;;25.15;48.66;101857.09;1782454;80;21480;-47
2021/09/15 06:36:36;;;;;;;15.05;7.40;;;;;;;25.21;48.36;101854.02;1784687;80;20966;-48
2021/09/15 06:39:03;;;;;;;9.38;7.30;;;;;;;25.28;48.10;101858.01;1759219;80;21061;-51
2021/09/15 06:41:30;;;;;;;9.63;7.35;;;;;;;25.31;48.17;101859.12;1774017;80;21018;-49
2021/09/15 06:43:56;;;;;;;17.45;8.48;;;;;;;25.34;47.71;101865.59;1775600;80;21042;-50
2021/09/15 06:46:23;;;;;;;9.98;6.85;;;;;;;25.36;47.25;101858.36;1778253;80;21452;-48
2021/09/15 06:48:52;;;;;;;9.25;6.75;;;;;;;25.38;47.28;101862.24;1763725;80;21052;-49
2021/09/15 06:51:20;;;;;;;8.15;7.35;;;;;;;25.40;47.58;101862.52;1779637;80;21509;-52
2021/09/15 06:53:48;;;;;;;9.43;7.08;;;;;;;25.43;47.52;101858.84;1774599;80;21453;-48
2021/09/15 06:56:15;;;;;;;10.23;7.15;;;;;;;25.47;47.44;101866.50;1776010;80;21020;-47
2021/09/15 06:58:42;;;;;;;11.03;7.65;;;;;;;25.50;47.46;101866.79;1773121;80;20962;-47
2021/09/15 07:01:10;;;;;;;7.72;6.90;;;;;;;25.53;47.41;101862.60;1768812;80;21525;-51
2021/09/15 07:03:37;;;;;;;10.15;7.87;;;;;;;25.56;47.42;101861.91;1776074;80;20960;-49
2021/09/15 07:06:04;;;;;;;10.13;7.22;;;;;;;25.56;47.42;101861.91;1775570;80;21024;-49
2021/09/15 07:08:31;;;;;;;8.60;7.30;;;;;;;25.60;47.63;101864.74;1777588;80;21006;-47
2021/09/15 07:10:59;;;;;;;10.38;7.35;;;;;;;25.62;47.76;101862.83;1769604;80;21471;-49
2021/09/15 07:13:28;;;;;;;9.68;7.62;;;;;;;25.66;47.83;101861.67;1761173;80;20989;-46
2021/09/15 07:15:55;;;;;;;16.57;8.23;;;;;;;25.72;47.96;101858.59;1775249;80;21022;-46
2021/09/15 07:18:21;;;;;;;10.93;7.90;;;;;;;25.81;48.10;101864.64;1775396;80;21485;-49
2021/09/15 07:20:48;;;;;;;10.32;7.20;;;;;;;25.81;48.10;101864.64;1779526;80;20982;-49
2021/09/15 07:23:14;;;;;;;19.48;8.88;;;;;;;25.86;48.06;101867.00;1768479;80;22065;-51
2021/09/15 07:25:41;;;;;;;11.18;8.38;;;;;;;25.90;48.16;101871.64;1765640;80;21024;-47
2021/09/15 07:28:08;;;;;;;12.50;9.15;;;;;;;25.90;48.16;101871.64;1768500;80;21052;-49
2021/09/15 07:30:35;;;;;;;11.10;9.10;;;;;;;25.92;48.24;101871.92;1769662;80;21002;-50
2021/09/15 07:33:02;;;;;;;10.50;9.33;;;;;;;25.94;48.49;101866.00;1769147;80;21502;-49
2021/09/15 07:35:29;;;;;;;14.75;11.97;;;;;;;26.01;48.40;101869.11;1772323;80;20995;-49
2021/09/15 07:37:55;;;;;;;14.40;9.80;;;;;;;26.01;48.40;101869.11;1767976;80;21034;-49
2021/09/15 07:40:22;;;;;;;9.88;8.48;;;;;;;26.04;48.42;101871.55;1759000;80;21059;-48
2021/09/15 07:42:49;;;;;;;12.15;9.03;;;;;;;26.07;48.55;101868.69;1768903;80;20989;-49
2021/09/15 07:45:16;;;;;;;14.80;8.68;;;;;;;26.06;48.83;101868.30;1773909;80;20995;-47
2021/09/15 07:47:44;;;;;;;14.13;8.40;;;;;;;26.06;48.83;101868.30;1779567;80;21021;-48
2021/09/15 07:50:12;;;;;;;12.58;8.43;;;;;;;26.09;49.11;101865.47;1768588;80;21026;-47
2021/09/15 07:52:38;;;;;;;12.13;8.73;;;;;;;26.17;49.12;101857.28;1771032;80;21006;-46
2021/09/15 07:55:07;;;;;;;82.47;14.13;;;;;;;26.22;49.18;101857.83;1775743;80;20989;-47
2021/09/15 07:57:35;;;;;;;13.48;8.33;;;;;;;26.29;49.20;101859.12;1769966;80;21005;-48
2021/09/15 08:00:03;;;;;;;11.75;8.25;;;;;;;26.29;49.20;101859.12;1780086;80;21045;-48
2021/09/15 08:02:32;;;;;;;10.95;8.93;;;;;;;26.40;49.07;101863.67;1774832;80;20964;-50
2021/09/15 08:04:58;;;;;;;14.85;9.23;;;;;;;26.40;49.07;101863.67;1771917;80;21530;-49
2021/09/15 08:07:25;;;;;;;13.30;8.63;;;;;;;26.46;49.04;101860.61;1781694;80;20963;-48
2021/09/15 08:09:52;;;;;;;13.65;8.65;;;;;;;26.47;49.00;101860.49;1771201;80;20986;-49
2021/09/15 08:12:18;;;;;;;10.10;9.00;;;;;;;26.55;48.76;101857.27;1770011;80;20985;-50
2021/09/15 08:14:47;;;;;;;11.25;8.38;;;;;;;26.59;48.87;101850.75;1777753;80;21002;-49
2021/09/15 08:17:13;;;;;;;13.58;8.68;;;;;;;26.59;48.87;101850.75;1776894;80;21022;-47
2021/09/15 08:19:40;;;;;;;13.93;8.90;;;;;;;26.66;48.84;101852.03;1769452;80;21529;-47
2021/09/15 08:22:09;;;;;;;11.50;8.28;;;;;;;26.79;48.52;101857.37;1779209;80;21528;-48
2021/09/15 08:24:37;;;;;;;11.57;9.33;;;;;;;26.82;48.53;101854.00;1783247;80;20994;-48
2021/09/15 08:27:04;;;;;;;13.18;8.83;;;;;;;26.82;48.53;101854.00;1781143;80;21002;-48
2021/09/15 08:29:30;;;;;;;10.13;8.08;;;;;;;26.87;48.62;101849.19;1772363;80;21525;-48
2021/09/15 08:31:58;;;;;;;12.50;9.88;;;;;;;26.93;48.67;101854.09;1768008;80;21021;-50
2021/09/15 08:34:25;;;;;;;15.50;11.50;;;;;;;26.98;48.15;101853.72;1773823;80;21009;-51
2021/09/15 08:36:52;;;;;;;25.40;12.00;;;;;;;26.96;48.17;101852.51;1775069;80;20981;-51
2021/09/15 08:39:21;;;;;;;13.30;9.85;;;;;;;26.98;48.06;101857.73;1774387;80;21088;-47
2021/09/15 08:41:50;;;;;;;13.43;11.05;;;;;;;26.99;48.16;101852.30;1780340;80;21009;-50
2021/09/15 08:44:18;;;;;;;82.20;34.78;;;;;;;27.03;48.12;101859.59;1771667;80;20974;-50
2021/09/15 08:46:46;;;;;;;21.33;12.98;;;;;;;27.01;47.98;101854.85;1768921;80;21561;-48
2021/09/15 08:49:13;;;;;;;29.37;16.27;;;;;;;27.01;47.81;101858.86;1781268;80;21014;-49
2021/09/15 08:51:40;;;;;;;21.87;13.72;;;;;;;27.01;47.98;101855.71;1776483;80;21482;-47
2021/09/15 08:54:10;;;;;;;18.32;10.58;;;;;;;27.00;47.95;101852.66;1772315;80;21061;-50
2021/09/15 08:56:37;;;;;;;26.45;13.48;;;;;;;27.03;47.94;101863.61;1784385;80;20997;-51
2021/09/15 08:59:05;;;;;;;17.35;11.75;;;;;;;27.04;47.94;101858.14;1771812;80;21064;-49
2021/09/15 09:01:32;;;;;;;17.05;9.98;;;;;;;27.09;47.89;101868.50;1782531;80;21084;-50
2021/09/15 09:03:59;;;;;;;11.25;8.68;;;;;;;27.11;47.64;101864.76;1780195;80;21879;-47
2021/09/15 09:06:32;;;;;;;12.10;7.25;;;;;;;27.13;47.48;101863.30;1777883;80;20963;-51
2021/09/15 09:09:00;;;;;;;18.52;7.67;;;;;;;27.13;47.20;101860.16;1773094;80;21018;-50
2021/09/15 09:11:30;;;;;;;9.60;7.87;;;;;;;27.15;46.88;101860.03;1751265;80;21529;-48
2021/09/15 09:14:00;;;;;;;9.70;7.95;;;;;;;27.16;46.95;101859.08;1756209;80;21474;-48
2021/09/15 09:16:48;;;;;;;11.38;7.83;;;;;;;27.17;47.10;101860.30;1779174;80;21509;-51
2021/09/15 09:19:19;;;;;;;11.18;8.60;;;;;;;27.18;47.24;101861.98;1772481;80;21545;-50
2021/09/15 09:21:50;;;;;;;12.07;7.85;;;;;;;27.19;47.40;101862.38;1775435;80;20982;-48
2021/09/15 09:24:23;;;;;;;9.45;7.75;;;;;;;27.18;47.38;101860.65;1754304;81;21022;-49
2021/09/15 09:26:58;;;;;;;12.53;8.38;;;;;;;27.17;47.47;101854.09;1760166;81;21542;-50
2021/09/15 09:29:33;;;;;;;11.95;8.68;;;;;;;27.17;47.37;101851.42;1741755;81;20963;-48
2021/09/15 09:32:08;;;;;;;9.33;8.13;;;;;;;27.18;47.34;101857.98;1750203;81;21061;-49
2021/09/15 09:34:46;;;;;;;12.68;9.18;;;;;;;27.17;47.54;101854.95;1633630;87;21596;-49
2021/09/15 09:37:16;;;;;;;11.18;7.85;;;;;;;27.18;47.61;101857.98;1633578;88;21060;-48
2021/09/15 09:39:52;;;;;;;20.72;13.75;;;;;;;27.25;47.50;101857.91;1632107;86;21567;-50
2021/09/15 09:42:28;;;;;;;19.85;11.90;;;;;;;27.27;47.63;101854.64;1635569;88;21031;-47
2021/09/15 09:45:10;;;;;;;12.78;9.08;;;;;;;27.31;47.49;101853.44;1634947;88;21023;-52
2021/09/15 09:47:38;;;;;;;9.88;8.70;;;;;;;27.35;47.21;101862.11;1635596;88;21058;-49
2021/09/15 09:50:14;;;;;;;22.73;15.05;;;;;;;27.36;47.07;101854.00;1636098;87;21060;-50
2021/09/15 09:53:00;;;;;;;15.40;10.00;;;;;;;27.38;47.11;101857.89;1567349;91;21031;-48
2021/09/15 09:55:29;;;;;;;;;;;;;;;27.37;47.02;101858.36;1564461;91;21063;-51
2021/09/15 09:57:57;;;;;;;13.75;8.35;;;;;;;27.38;47.02;101850.73;1513493;94;20399;-50
2021/09/15 10:00:25;;;;;;;14.15;9.98;;;;;;;27.37;46.88;101846.33;1513089;94;21104;-48
2021/09/15 10:02:52;;;;;;;12.45;9.10;;;;;;;27.39;47.07;101851.56;1515790;94;21089;-51
2021/09/15 10:05:21;;;;;;;10.90;9.35;;;;;;;27.41;47.05;101847.45;1516306;94;21029;-49
2021/09/15 10:07:48;;;;;;;12.25;8.65;;;;;;;27.44;46.73;101856.56;1515826;94;21095;-49
2021/09/15 10:10:19;;;;;;;8.83;7.92;;;;;;;27.44;46.70;101850.74;1515429;94;21049;-47
2021/09/15 10:12:50;;;;;;;9.70;7.72;;;;;;;27.46;46.62;101853.30;1516071;95;21566;-51
2021/09/15 10:15:16;;;;;;;9.65;7.90;;;;;;;27.48;46.34;101854.03;1516051;94;21100;-51
2021/09/15 10:17:52;;;;;;;11.10;8.45;;;;;;;27.47;46.37;101846.48;1516273;95;21072;-47
2021/09/15 10:20:29;;;;;;;10.90;8.10;;;;;;;27.50;46.25;101844.08;1516951;94;21137;-50
2021/09/15 10:22:56;;;;;;;8.58;7.72;;;;;;;27.50;46.27;101848.08;1491021;96;21079;-47
2021/09/15 10:25:38;;;;;;;10.08;7.80;;;;;;;27.48;46.32;101846.87;1468190;98;21631;-50
2021/09/15 10:28:08;;;;;;;;;;;;;;;27.48;46.51;101846.01;1470149;98;21073;-47
2021/09/15 10:30:44;;;;;;;8.78;7.10;;;;;;;27.45;46.25;101851.61;1535226;93;20419;-50
2021/09/15 10:33:40;;;;;;;8.20;7.40;;;;;;;27.43;46.39;101848.20;1525247;93;21061;-52
2021/09/15 10:36:21;;;;;;;7.97;7.12;;;;;;;27.39;46.19;101851.08;1504542;93;21138;-49
2021/09/15 10:38:58;;;;;;;10.60;7.58;;;;;;;27.31;46.08;101852.11;1564341;89;21102;-47
2021/09/15 10:41:38;;;;;;;8.00;7.17;;;;;;;27.24;46.19;101847.34;1568862;90;21086;-47
2021/09/15 10:44:13;;;;;;;17.85;13.28;;;;;;;27.21;46.34;101851.09;1636880;87;21007;-48
2021/09/15 10:46:41;;;;;;;10.03;7.15;;;;;;;27.19;46.29;101845.00;1633077;87;21082;-49
2021/09/15 10:49:26;;;;;;;8.93;6.85;;;;;;;27.21;46.19;101839.06;1625298;87;21045;-49
2021/09/15 10:52:13;;;;;;;8.45;6.75;;;;;;;27.24;46.32;101841.48;1621790;87;21122;-48
2021/09/15 10:54:55;;;;;;;10.65;6.05;;;;;;;27.25;46.26;101847.22;1643402;84;21106;-51
2021/09/15 10:57:36;;;;;;;9.58;6.40;;;;;;;27.26;45.90;101839.59;1676803;84;21499;-50
2021/09/15 11:00:21;;;;;;;9.20;6.07;;;;;;;27.26;45.79;101834.24;1669270;84;21061;-50
2021/09/15 11:02:49;;;;;;;6.70;5.97;;;;;;;27.30;45.64;101834.38;1665795;84;21073;-50
2021/09/15 11:05:40;;;;;;;8.68;6.12;;;;;;;27.28;46.12;101828.77;1668586;84;20997;-47
2021/09/15 11:08:12;;;;;;;9.13;6.50;;;;;;;27.31;46.16;101842.75;1676184;84;21037;-47
2021/09/15 11:10:42;;;;;;;7.22;5.20;;;;;;;27.34;45.62;101833.22;1673083;84;21155;-46
2021/09/15 11:13:23;;;;;;;6.80;5.05;;;;;;;27.37;45.60;101834.30;1674855;84;21070;-48
2021/09/15 11:15:53;;;;;;;8.00;5.45;;;;;;;27.42;45.28;101834.44;1662596;85;21556;-52
2021/09/15 11:18:27;;;;;;;7.78;4.92;;;;;;;27.45;45.06;101827.55;1658239;85;21090;-47
2021/09/15 11:21:03;;;;;;;7.15;5.95;;;;;;;27.50;45.06;101822.69;1648577;85;21067;-50
2021/09/15 11:23:31;;;;;;;13.10;6.30;;;;;;;27.55;45.46;101820.53;1660919;85;20988;-48
2021/09/15 11:25:58;;;;;;;8.48;6.12;;;;;;;27.58;45.58;101816.27;1663322;85;21029;-49
2021/09/15 11:28:26;;;;;;;10.88;6.45;;;;;;;27.60;45.41;101815.67;1705823;83;21001;-46
2021/09/15 11:30:59;;;;;;;11.97;6.08;;;;;;;27.62;45.49;101816.41;1713337;83;21001;-49
2021/09/15 11:33:36;;;;;;;7.35;5.83;;;;;;;27.62;45.46;101813.73;1719595;81;21017;-50
2021/09/15 11:36:06;;;;;;;8.25;6.05;;;;;;;27.65;45.49;101816.19;1716489;82;21022;-47
2021/09/15 11:38:38;;;;;;;8.30;5.97;;;;;;;27.68;45.29;101807.91;1710856;82;21073;-47
2021/09/15 11:41:15;;;;;;;;;;;;;;;27.70;45.16;101807.34;1673765;85;21078;-49